createdAt,value
2017-09-17T00:01:50.331Z,70.80
2017-09-17T00:04:16.888Z,70.90
2017-09-17T00:06:43.474Z,71.00
2017-09-17T00:09:09.891Z,71.20
2017-09-17T00:11:36.407Z,71.30
2017-09-17T00:14:04.901Z,71.40
2017-09-17T00:16:31.616Z,71.20
2017-09-17T00:18:58.080Z,71.20
2017-09-17T00:21:24.618Z,71.20
2017-09-17T00:23:51.058Z,70.90
2017-09-17T00:26:17.551Z,71.00
2017-09-17T00:28:43.946Z,72.10
2017-09-17T00:31:10.374Z,71.90
2017-09-17T00:33:36.860Z,71.80
2017-09-17T00:36:04.022Z,72.10
2017-09-17T00:38:30.599Z,72.10
2017-09-17T00:40:57.070Z,71.90
2017-09-17T00:43:23.531Z,72.50
2017-09-17T00:45:50.018Z,72.40
2017-09-17T00:48:16.471Z,72.40
2017-09-17T00:50:43.667Z,72.50
2017-09-17T00:53:10.119Z,72.10
2017-09-17T00:55:36.646Z,72.40
2017-09-17T00:58:03.086Z,72.20
2017-09-17T01:00:29.572Z,72.30
2017-09-17T01:02:57.791Z,72.60
2017-09-17T01:05:24.307Z,72.60
2017-09-17T01:07:50.743Z,72.10
2017-09-17T01:10:17.205Z,72.50
2017-09-17T01:12:43.662Z,72.40
2017-09-17T01:15:11.607Z,72.10
2017-09-17T01:17:38.054Z,72.10
2017-09-17T01:20:04.511Z,72.30
2017-09-17T01:22:31.754Z,72.40
2017-09-17T01:24:58.931Z,72.20
2017-09-17T01:27:25.517Z,72.20
2017-09-17T01:29:53.774Z,71.90
2017-09-17T01:32:20.340Z,71.90
2017-09-17T01:34:46.758Z,71.90
2017-09-17T01:37:13.231Z,72.50
2017-09-17T01:39:40.380Z,72.20
2017-09-17T01:42:07.567Z,72.00
2017-09-17T01:44:33.992Z,72.00
2017-09-17T01:47:00.421Z,72.10
2017-09-17T01:49:26.858Z,72.10
2017-09-17T01:51:53.277Z,72.00
2017-09-17T01:54:20.445Z,72.10
2017-09-17T01:56:47.547Z,72.20
2017-09-17T01:59:13.996Z,71.90
2017-09-17T02:01:41.156Z,72.10
2017-09-17T02:04:08.328Z,72.40
2017-09-17T02:06:34.767Z,72.40
2017-09-17T02:09:01.178Z,72.20
2017-09-17T02:11:27.675Z,72.30
2017-09-17T02:13:54.898Z,72.00
2017-09-17T02:16:21.311Z,72.00
2017-09-17T02:18:47.727Z,72.50
2017-09-17T02:21:14.142Z,72.70
2017-09-17T02:23:41.722Z,72.30
2017-09-17T02:26:08.275Z,72.70
2017-09-17T02:28:34.789Z,72.60
2017-09-17T02:31:01.246Z,72.40
2017-09-17T02:33:27.759Z,72.40
2017-09-17T02:35:54.151Z,72.40
2017-09-17T02:38:20.579Z,72.50
2017-09-17T02:40:47.049Z,72.00
2017-09-17T02:43:14.183Z,72.20
2017-09-17T02:45:40.600Z,72.10
2017-09-17T02:48:08.531Z,72.40
2017-09-17T02:50:34.942Z,72.30
2017-09-17T02:53:01.426Z,72.30
2017-09-17T02:55:28.801Z,72.40
2017-09-17T02:57:55.419Z,72.20
2017-09-17T03:00:21.834Z,72.20
2017-09-17T03:02:48.239Z,72.50
2017-09-17T03:05:14.678Z,72.50
2017-09-17T03:07:41.626Z,72.40
2017-09-17T03:10:08.163Z,72.40
2017-09-17T03:12:34.615Z,72.30
2017-09-17T03:15:01.047Z,72.30
2017-09-17T03:17:27.634Z,72.20
2017-09-17T03:19:54.803Z,71.90
2017-09-17T03:22:21.236Z,71.90
2017-09-17T03:24:47.660Z,71.70
2017-09-17T03:27:14.808Z,71.90
2017-09-17T03:29:41.966Z,71.90
2017-09-17T03:32:08.398Z,71.80
2017-09-17T03:34:34.810Z,71.90
2017-09-17T03:37:01.995Z,72.20
2017-09-17T03:39:28.527Z,72.20
2017-09-17T03:41:54.967Z,72.00
2017-09-17T03:44:21.386Z,71.60
2017-09-17T03:46:47.840Z,71.50
2017-09-17T03:49:14.264Z,71.70
2017-09-17T03:51:40.904Z,71.40
2017-09-17T03:54:07.318Z,71.40
2017-09-17T03:56:34.016Z,71.10
2017-09-17T03:59:01.327Z,71.30
2017-09-17T04:01:27.770Z,71.30
2017-09-17T04:03:54.190Z,71.10
2017-09-17T04:06:20.616Z,71.10
2017-09-17T04:08:47.067Z,71.40
2017-09-17T04:11:13.519Z,71.40
2017-09-17T04:13:39.928Z,71.20
2017-09-17T04:16:06.326Z,70.80
2017-09-17T04:18:34.617Z,71.60
2017-09-17T04:21:01.285Z,70.80
2017-09-17T04:23:27.708Z,70.60
2017-09-17T04:25:54.140Z,71.10
2017-09-17T04:28:20.576Z,71.40
2017-09-17T04:30:47.024Z,71.30
2017-09-17T04:33:13.512Z,71.00
2017-09-17T04:35:40.730Z,71.00
2017-09-17T04:38:07.154Z,70.90
2017-09-17T04:40:33.845Z,71.00
2017-09-17T04:43:00.292Z,70.80
2017-09-17T04:45:26.719Z,71.00
2017-09-17T04:47:53.181Z,70.70
2017-09-17T04:50:19.598Z,70.70
2017-09-17T04:52:46.026Z,70.60
2017-09-17T04:55:12.428Z,70.50
2017-09-17T04:57:39.650Z,70.60
2017-09-17T05:00:07.566Z,70.00
2017-09-17T05:02:35.019Z,70.10
2017-09-17T05:05:02.463Z,70.10
2017-09-17T05:07:29.967Z,70.00
2017-09-17T05:09:56.424Z,70.00
2017-09-17T05:12:22.887Z,70.00
2017-09-17T05:14:49.475Z,70.00
2017-09-17T05:17:15.908Z,70.10
2017-09-17T05:19:42.308Z,70.30
2017-09-17T05:22:08.765Z,70.50
2017-09-17T05:24:35.407Z,70.80
2017-09-17T05:27:01.863Z,70.60
2017-09-17T05:29:29.882Z,70.70
2017-09-17T05:31:56.488Z,70.70
2017-09-17T05:34:23.039Z,70.40
2017-09-17T05:36:49.470Z,70.70
2017-09-17T05:39:21.967Z,69.90
2017-09-17T05:41:48.406Z,70.30
2017-09-17T05:44:14.817Z,70.10
2017-09-17T05:46:42.288Z,70.00
2017-09-17T05:49:08.890Z,70.00
2017-09-17T05:51:36.375Z,69.80
2017-09-17T05:54:02.953Z,69.80
2017-09-17T05:56:29.732Z,69.40
2017-09-17T05:58:56.392Z,69.60
2017-09-17T06:01:22.989Z,69.60
2017-09-17T06:03:49.748Z,69.50
2017-09-17T06:06:16.353Z,69.80
2017-09-17T06:08:42.787Z,69.50
2017-09-17T06:11:09.264Z,69.60
2017-09-17T06:13:36.945Z,69.60
2017-09-17T06:16:04.271Z,69.40
2017-09-17T06:18:31.446Z,69.30
2017-09-17T06:20:57.914Z,69.20
2017-09-17T06:23:24.353Z,69.40
2017-09-17T06:25:51.559Z,69.10
2017-09-17T06:28:18.027Z,69.10
2017-09-17T06:30:44.607Z,69.30
2017-09-17T06:33:11.283Z,69.00
2017-09-17T06:35:39.215Z,69.00
2017-09-17T06:38:05.807Z,68.70
2017-09-17T06:40:33.907Z,68.60
2017-09-17T06:43:01.076Z,68.60
2017-09-17T06:45:27.674Z,68.80
2017-09-17T06:47:54.234Z,68.60
2017-09-17T06:50:20.698Z,68.70
2017-09-17T06:52:47.275Z,69.00
2017-09-17T06:55:13.945Z,68.20
2017-09-17T06:57:41.769Z,68.10
2017-09-17T07:00:08.402Z,68.20
2017-09-17T07:02:36.143Z,68.50
2017-09-17T07:05:03.627Z,68.30
2017-09-17T07:07:30.474Z,68.30
2017-09-17T07:09:56.954Z,68.10
2017-09-17T07:12:23.489Z,68.10
2017-09-17T07:14:50.143Z,68.20
2017-09-17T07:17:16.605Z,67.90
2017-09-17T07:19:43.032Z,67.70
2017-09-17T07:22:09.471Z,68.20
2017-09-17T07:24:36.119Z,68.40
2017-09-17T07:27:02.582Z,68.00
2017-09-17T07:29:29.091Z,67.70
2017-09-17T07:31:55.569Z,67.60
2017-09-17T07:34:22.865Z,67.80
2017-09-17T07:36:50.297Z,67.40
2017-09-17T07:39:17.756Z,67.10
2017-09-17T07:41:50.556Z,67.10
2017-09-17T07:44:17.114Z,67.00
2017-09-17T07:46:43.899Z,66.80
2017-09-17T07:49:10.366Z,66.70
2017-09-17T07:51:38.019Z,67.20
2017-09-17T07:54:04.541Z,67.20
2017-09-17T07:56:32.107Z,66.80
2017-09-17T07:58:58.961Z,66.80
2017-09-17T08:01:25.704Z,66.80
2017-09-17T08:03:52.439Z,66.70
2017-09-17T08:06:19.113Z,66.60
2017-09-17T08:08:47.006Z,66.90
2017-09-17T08:11:14.397Z,67.10
2017-09-17T08:13:41.112Z,66.90
2017-09-17T08:16:07.670Z,66.60
2017-09-17T08:18:34.418Z,66.60
2017-09-17T08:21:00.892Z,66.60
2017-09-17T08:23:28.554Z,65.80
2017-09-17T08:25:56.854Z,67.20
2017-09-17T08:28:23.619Z,66.50
2017-09-17T08:30:50.344Z,66.40
2017-09-17T08:33:17.844Z,66.90
2017-09-17T08:35:45.858Z,66.70
2017-09-17T08:38:13.117Z,67.40
2017-09-17T08:40:39.602Z,67.40
2017-09-17T08:43:06.160Z,66.70
2017-09-17T08:45:33.426Z,67.40
2017-09-17T08:48:01.433Z,67.00
2017-09-17T08:50:28.819Z,66.70
2017-09-17T08:52:55.430Z,66.70
2017-09-17T08:55:21.905Z,66.20
2017-09-17T08:57:48.529Z,66.70
2017-09-17T09:00:15.922Z,65.10
2017-09-17T09:02:42.572Z,65.60
2017-09-17T09:05:09.195Z,65.60
2017-09-17T09:07:35.783Z,65.70
2017-09-17T09:10:03.631Z,65.30
2017-09-17T09:12:30.401Z,65.90
2017-09-17T09:14:56.949Z,66.00
2017-09-17T09:17:23.430Z,65.90
2017-09-17T09:19:49.919Z,65.00
2017-09-17T09:22:16.625Z,65.10
2017-09-17T09:24:43.152Z,64.50
2017-09-17T09:27:09.621Z,65.10
2017-09-17T09:29:36.060Z,64.20
2017-09-17T09:32:02.533Z,64.80
2017-09-17T09:34:29.971Z,65.30
2017-09-17T09:36:57.170Z,65.30
2017-09-17T09:39:23.657Z,65.40
2017-09-17T09:41:50.842Z,64.50
2017-09-17T09:44:17.358Z,64.40
2017-09-17T09:46:44.616Z,65.20
2017-09-17T09:49:11.101Z,65.20
2017-09-17T09:51:37.527Z,65.60
2017-09-17T09:54:03.957Z,65.70
2017-09-17T09:56:30.509Z,65.70
2017-09-17T09:58:56.997Z,65.20
2017-09-17T10:01:24.138Z,64.90
2017-09-17T10:03:51.309Z,64.90
2017-09-17T10:06:17.846Z,64.90
2017-09-17T10:08:44.311Z,65.50
2017-09-17T10:11:12.062Z,65.60
2017-09-17T10:13:38.847Z,65.60
2017-09-17T10:16:20.031Z,65.70
2017-09-17T10:18:47.062Z,65.10
2017-09-17T10:21:13.533Z,65.20
2017-09-17T10:23:40.730Z,65.50
2017-09-17T10:26:07.143Z,65.50
2017-09-17T10:28:33.647Z,65.40
2017-09-17T10:31:00.122Z,65.50
2017-09-17T10:33:26.626Z,65.50
2017-09-17T10:35:53.060Z,65.80
2017-09-17T10:38:19.494Z,66.50
2017-09-17T10:40:45.914Z,65.50
2017-09-17T10:43:13.100Z,65.10
2017-09-17T10:45:39.528Z,65.00
2017-09-17T10:48:05.959Z,64.40
2017-09-17T10:50:32.663Z,64.70
2017-09-17T10:52:59.195Z,64.40
2017-09-17T10:55:26.455Z,64.80
2017-09-17T10:57:53.233Z,64.80
2017-09-17T11:00:19.709Z,65.00
2017-09-17T11:02:46.939Z,64.80
2017-09-17T11:05:13.351Z,64.80
2017-09-17T11:07:39.815Z,63.60
2017-09-17T11:10:06.533Z,64.30
2017-09-17T11:12:33.110Z,65.00
2017-09-17T11:14:59.910Z,63.90
2017-09-17T11:17:27.514Z,64.00
2017-09-17T11:19:54.067Z,64.60
2017-09-17T11:22:20.597Z,65.00
2017-09-17T11:24:47.077Z,64.60
2017-09-17T11:27:13.718Z,64.80
2017-09-17T11:29:40.623Z,64.80
2017-09-17T11:32:07.131Z,65.20
2017-09-17T11:34:34.427Z,65.80
2017-09-17T11:37:00.909Z,65.20
2017-09-17T11:39:27.433Z,65.00
2017-09-17T11:41:54.065Z,64.60
2017-09-17T11:44:22.056Z,64.90
2017-09-17T11:46:48.495Z,64.80
2017-09-17T11:49:15.775Z,64.80
2017-09-17T11:51:42.227Z,65.00
2017-09-17T11:54:08.786Z,64.60
2017-09-17T11:56:35.235Z,65.00
2017-09-17T11:59:01.746Z,64.50
2017-09-17T12:01:28.347Z,64.50
2017-09-17T12:03:54.813Z,64.40
2017-09-17T12:06:21.263Z,63.20
2017-09-17T12:08:47.746Z,63.50
2017-09-17T12:11:14.923Z,63.10
2017-09-17T12:13:41.604Z,63.10
2017-09-17T12:16:08.116Z,62.50
2017-09-17T12:18:34.825Z,61.80
2017-09-17T12:21:01.655Z,62.00
2017-09-17T12:23:28.216Z,62.30
2017-09-17T12:25:54.670Z,64.10
2017-09-17T12:28:21.195Z,62.90
2017-09-17T12:30:47.801Z,62.10
2017-09-17T12:33:14.327Z,61.80
2017-09-17T12:35:40.957Z,62.20
2017-09-17T12:38:07.441Z,63.00
2017-09-17T12:40:33.923Z,62.00
2017-09-17T12:43:00.890Z,62.00
2017-09-17T12:45:27.416Z,62.50
2017-09-17T12:47:54.263Z,62.30
2017-09-17T12:50:21.613Z,62.60
2017-09-17T12:52:48.049Z,62.60
2017-09-17T12:55:14.476Z,62.10
2017-09-17T12:57:41.026Z,62.70
2017-09-17T13:02:35.941Z,63.30
2017-09-17T13:05:02.417Z,61.40
2017-09-17T13:07:29.011Z,58.20
2017-09-17T13:09:55.645Z,59.40
2017-09-17T13:12:22.145Z,61.40
2017-09-17T13:14:48.623Z,59.80
2017-09-17T13:17:15.205Z,59.60
2017-09-17T13:19:41.764Z,59.70
2017-09-17T13:22:08.948Z,59.00
2017-09-17T13:24:35.447Z,59.00
2017-09-17T13:27:01.939Z,58.30
2017-09-17T13:29:28.464Z,60.10
2017-09-17T13:31:56.423Z,59.90
2017-09-17T13:34:22.875Z,59.90
2017-09-17T13:36:49.314Z,59.70
2017-09-17T13:39:15.750Z,60.80
2017-09-17T13:41:42.219Z,60.80
2017-09-17T13:44:08.681Z,61.10
2017-09-17T13:46:35.223Z,61.60
2017-09-17T13:49:01.694Z,62.00
2017-09-17T13:51:28.300Z,61.90
2017-09-17T13:53:54.774Z,61.50
2017-09-17T13:56:21.279Z,61.60
2017-09-17T13:58:47.751Z,62.20
2017-09-17T14:01:26.459Z,63.90
2017-09-17T14:03:53.903Z,64.70
2017-09-17T14:06:23.055Z,64.60
2017-09-17T14:08:55.341Z,64.50
2017-09-17T14:11:22.819Z,63.70
2017-09-17T14:13:49.275Z,63.10
2017-09-17T14:16:15.743Z,62.40
2017-09-17T14:18:42.952Z,62.20
2017-09-17T14:21:09.532Z,62.20
2017-09-17T14:23:36.816Z,61.90
2017-09-17T14:26:03.247Z,61.90
2017-09-17T14:28:30.397Z,62.20
2017-09-17T14:30:57.003Z,61.60
2017-09-17T14:33:23.524Z,61.70
2017-09-17T14:35:50.743Z,60.50
2017-09-17T14:38:17.152Z,60.50
2017-09-17T14:40:43.747Z,61.30
2017-09-17T14:43:10.899Z,61.80
2017-09-17T14:45:38.050Z,62.80
2017-09-17T14:48:05.228Z,62.50
2017-09-17T14:50:31.699Z,62.40
2017-09-17T14:52:58.223Z,62.30
2017-09-17T14:55:24.690Z,62.70
2017-09-17T14:57:51.879Z,62.10
2017-09-17T15:00:18.348Z,62.60
2017-09-17T15:02:44.937Z,62.80
2017-09-17T15:05:11.407Z,63.20
2017-09-17T15:07:37.968Z,63.40
2017-09-17T15:10:05.921Z,63.20
2017-09-17T15:12:32.553Z,63.20
2017-09-17T15:15:00.503Z,63.50
2017-09-17T15:17:26.987Z,63.50
2017-09-17T15:19:54.171Z,63.40
2017-09-17T15:22:20.605Z,63.40
2017-09-17T15:24:47.780Z,61.80
2017-09-17T15:27:14.180Z,61.90
2017-09-17T15:29:40.754Z,63.30
2017-09-17T15:32:07.247Z,62.60
2017-09-17T15:34:34.624Z,63.30
2017-09-17T15:37:01.766Z,63.30
2017-09-17T15:39:28.287Z,63.10
2017-09-17T15:41:54.722Z,63.20
2017-09-17T15:44:21.882Z,63.50
2017-09-17T15:46:48.348Z,63.50
2017-09-17T15:49:14.827Z,63.20
2017-09-17T15:51:41.240Z,62.70
2017-09-17T15:54:08.839Z,62.60
2017-09-17T15:56:35.648Z,62.90
2017-09-17T15:59:02.844Z,62.70
2017-09-17T16:01:29.313Z,62.60
2017-09-17T16:03:55.867Z,62.30
2017-09-17T16:06:23.085Z,59.60
2017-09-17T16:08:50.487Z,59.60
2017-09-17T16:11:16.883Z,59.70
2017-09-17T16:13:43.534Z,60.80
2017-09-17T16:16:10.760Z,61.10
2017-09-17T16:18:37.452Z,61.10
2017-09-17T16:21:03.935Z,61.60
2017-09-17T16:23:30.468Z,61.90
2017-09-17T16:25:56.948Z,61.50
2017-09-17T16:28:24.543Z,61.80
2017-09-17T16:30:51.895Z,62.20
2017-09-17T16:33:18.332Z,62.10
2017-09-17T16:35:44.781Z,62.20
2017-09-17T16:38:11.204Z,62.20
2017-09-17T16:40:37.821Z,62.10
2017-09-17T16:43:04.294Z,62.00
2017-09-17T16:45:30.697Z,62.00
2017-09-17T16:47:58.768Z,62.10
2017-09-17T16:50:26.203Z,62.40
2017-09-17T16:52:52.639Z,62.40
2017-09-17T16:55:19.212Z,62.30
2017-09-17T16:57:45.785Z,62.10
2017-09-17T17:00:12.216Z,62.50
2017-09-17T17:02:38.682Z,63.10
2017-09-17T17:05:05.860Z,63.80
2017-09-17T17:07:32.430Z,63.80
2017-09-17T17:09:58.906Z,63.80
2017-09-17T17:12:26.173Z,63.50
2017-09-17T17:14:52.804Z,63.50
2017-09-17T17:17:19.232Z,63.60
2017-09-17T17:19:46.440Z,64.50
2017-09-17T17:22:12.936Z,64.50
2017-09-17T17:24:39.391Z,64.90
2017-09-17T17:27:05.811Z,64.40
2017-09-17T17:29:32.238Z,64.90
2017-09-17T17:31:58.678Z,65.60
2017-09-17T17:34:25.136Z,65.90
2017-09-17T17:36:51.742Z,66.50
2017-09-17T17:39:18.187Z,66.50
2017-09-17T17:41:44.632Z,66.60
2017-09-17T17:44:11.046Z,66.70
2017-09-17T17:46:37.476Z,66.70
2017-09-17T17:49:03.960Z,66.60
2017-09-17T17:51:30.650Z,66.90
2017-09-17T17:53:57.233Z,67.10
2017-09-17T17:56:24.601Z,67.00
2017-09-17T17:58:51.131Z,67.00
2017-09-17T18:01:17.660Z,67.40
2017-09-17T18:03:44.329Z,67.80
2017-09-17T18:06:10.972Z,67.70
2017-09-17T18:08:37.492Z,67.40
2017-09-17T18:11:03.956Z,67.70
2017-09-17T18:13:30.597Z,67.90
2017-09-17T18:15:57.590Z,68.10
2017-09-17T18:18:24.161Z,68.30
2017-09-17T18:20:50.773Z,68.20
2017-09-17T18:23:17.319Z,68.40
2017-09-17T18:25:44.518Z,68.70
2017-09-17T18:28:10.947Z,68.70
2017-09-17T18:30:37.528Z,68.70
2017-09-17T18:33:04.572Z,68.70
2017-09-17T18:35:31.019Z,68.60
2017-09-17T18:37:57.491Z,68.30
2017-09-17T18:40:23.898Z,68.10
2017-09-17T18:42:50.405Z,68.50
2017-09-17T18:45:17.624Z,69.50
2017-09-17T18:47:44.057Z,69.50
2017-09-17T18:50:10.563Z,69.20
2017-09-17T18:52:37.070Z,69.60
2017-09-17T18:55:03.569Z,69.10
2017-09-17T18:57:30.047Z,68.80
2017-09-17T18:59:57.231Z,69.00
2017-09-17T19:02:23.820Z,69.00
2017-09-17T19:04:51.054Z,68.90
2017-09-17T19:07:17.591Z,68.90
2017-09-17T19:09:44.117Z,68.90
2017-09-17T19:12:10.620Z,68.70
2017-09-17T19:14:37.084Z,69.00
2017-09-17T19:17:03.488Z,69.40
2017-09-17T19:19:30.616Z,69.90
2017-09-17T19:21:58.126Z,70.30
2017-09-17T19:24:25.339Z,69.80
2017-09-17T19:26:51.823Z,69.80
2017-09-17T19:29:19.234Z,69.60
2017-09-17T19:31:45.679Z,69.60
2017-09-17T19:34:13.223Z,69.40
2017-09-17T19:36:40.155Z,69.40
2017-09-17T19:39:06.774Z,69.30
2017-09-17T19:41:35.318Z,69.50
2017-09-17T19:44:02.177Z,69.40
2017-09-17T19:46:28.808Z,69.70
2017-09-17T19:48:55.995Z,69.60
2017-09-17T19:51:23.293Z,70.30
2017-09-17T19:53:50.038Z,69.60
2017-09-17T19:56:17.460Z,69.40
2017-09-17T19:58:43.996Z,69.30
2017-09-17T20:01:10.449Z,69.20
2017-09-17T20:03:36.896Z,69.10
2017-09-17T20:06:03.367Z,69.10
2017-09-17T20:08:30.568Z,69.00
2017-09-17T20:10:57.006Z,69.00
2017-09-17T20:13:23.654Z,69.20
2017-09-17T20:15:50.115Z,69.10
2017-09-17T20:18:17.284Z,69.20
2017-09-17T20:20:43.753Z,69.20
2017-09-17T20:23:10.867Z,69.10
2017-09-17T20:25:38.066Z,69.10
2017-09-17T20:28:04.463Z,69.00
2017-09-17T20:30:31.647Z,68.90
2017-09-17T20:32:58.072Z,68.90
2017-09-17T20:35:24.607Z,69.20
2017-09-17T20:37:51.035Z,68.70
2017-09-17T20:40:17.455Z,68.90
2017-09-17T20:42:43.911Z,68.30
2017-09-17T20:45:10.330Z,67.80
2017-09-17T20:47:37.058Z,67.90
2017-09-17T20:50:05.320Z,67.90
2017-09-17T20:52:31.916Z,68.00
2017-09-17T20:54:58.494Z,68.20
2017-09-17T20:57:25.085Z,68.40
2017-09-17T20:59:51.532Z,68.80
2017-09-17T21:02:18.832Z,68.40
2017-09-17T21:04:45.288Z,68.20
2017-09-17T21:07:11.696Z,68.20
2017-09-17T21:09:38.305Z,67.90
2017-09-17T21:12:05.467Z,67.30
2017-09-17T21:14:32.688Z,67.30
2017-09-17T21:16:59.903Z,67.20
2017-09-17T21:19:26.323Z,67.10
2017-09-17T21:21:52.808Z,67.20
2017-09-17T21:24:19.255Z,67.50
2017-09-17T21:26:45.675Z,67.70
2017-09-17T21:29:13.567Z,67.60
2017-09-17T21:31:40.745Z,67.50
2017-09-17T21:34:07.150Z,67.50
2017-09-17T21:36:34.296Z,67.10
2017-09-17T21:39:02.901Z,67.10
2017-09-17T21:41:29.351Z,67.00
2017-09-17T21:43:55.779Z,67.00
2017-09-17T21:46:22.221Z,67.80
2017-09-17T21:48:48.706Z,67.30
2017-09-17T21:51:15.138Z,66.60
2017-09-17T21:53:42.304Z,67.00
2017-09-17T21:56:09.483Z,67.10
2017-09-17T21:58:35.887Z,67.10
2017-09-17T22:01:03.102Z,67.20
2017-09-17T22:03:29.646Z,67.20
2017-09-17T22:05:56.815Z,67.20
2017-09-17T22:08:24.026Z,67.50
2017-09-17T22:10:50.499Z,67.50
2017-09-17T22:13:17.663Z,67.40
2017-09-17T22:15:44.820Z,66.30
2017-09-17T22:18:11.252Z,66.30
2017-09-17T22:20:37.672Z,66.80
2017-09-17T22:23:04.848Z,66.90
2017-09-17T22:25:31.288Z,66.90
2017-09-17T22:27:58.510Z,67.30
2017-09-17T22:30:25.671Z,67.60
2017-09-17T22:32:52.076Z,67.60
2017-09-17T22:35:18.546Z,67.90
2017-09-17T22:37:45.187Z,67.50
2017-09-17T22:40:11.637Z,68.60
2017-09-17T22:42:38.039Z,68.00
2017-09-17T22:45:04.487Z,67.90
2017-09-17T22:47:30.987Z,68.40
2017-09-17T22:49:58.158Z,68.90
2017-09-17T22:52:24.639Z,68.90
2017-09-17T22:54:51.153Z,68.90
2017-09-17T22:57:17.612Z,69.00
2017-09-17T22:59:45.515Z,69.50
2017-09-17T23:02:12.698Z,69.30
2017-09-17T23:04:39.138Z,69.40
2017-09-17T23:07:05.563Z,69.70
2017-09-17T23:09:32.156Z,69.70
2017-09-17T23:11:58.590Z,70.20
2017-09-17T23:14:25.132Z,70.50
2017-09-17T23:16:51.611Z,70.60
2017-09-17T23:19:24.130Z,70.00
2017-09-17T23:21:51.299Z,70.50
2017-09-17T23:24:17.728Z,70.50
2017-09-17T23:26:44.898Z,69.50
2017-09-17T23:29:11.320Z,69.40
2017-09-17T23:31:38.488Z,69.30
2017-09-17T23:34:04.921Z,69.20
2017-09-17T23:36:31.359Z,70.00
2017-09-17T23:38:57.787Z,69.80
2017-09-17T23:41:24.302Z,69.50
2017-09-17T23:43:50.726Z,69.20
2017-09-17T23:46:17.902Z,69.50
2017-09-17T23:48:44.326Z,69.40
2017-09-17T23:51:10.731Z,70.20
2017-09-17T23:53:43.175Z,70.50
2017-09-17T23:56:09.665Z,70.50
2017-09-17T23:58:36.090Z,70.40
